sensor_id;sensor_type;location;lat;lon;timestamp;P1;durP1;ratioP1;P2;durP2;ratioP2
14326;SDS011;7247;53.330;-1.180;2024-03-29T00:01:18;1.40;;;1.30;;
14326;SDS011;7247;53.330;-1.180;2024-03-29T00:03:44;1.37;;;1.27;;
14326;SDS011;7247;53.330;-1.180;2024-03-29T00:06:09;1.67;;;1.30;;
14326;SDS011;7247;53.330;-1.180;2024-03-29T00:08:35;1.40;;;1.30;;
14326;SDS011;7247;53.330;-1.180;2024-03-29T00:11:00;1.40;;;1.27;;
14326;SDS011;7247;53.330;-1.180;2024-03-29T00:13:27;1.73;;;1.50;;
14326;SDS011;7247;53.330;-1.180;2024-03-29T00:15:52;1.93;;;1.43;;
14326;SDS011;7247;53.330;-1.180;2024-03-29T00:18:18;2.10;;;1.40;;
14326;SDS011;7247;53.330;-1.180;2024-03-29T00:20:43;3.07;;;1.40;;
14326;SDS011;7247;53.330;-1.180;2024-03-29T00:23:09;1.47;;;1.30;;
14326;SDS011;7247;53.330;-1.180;2024-03-29T00:25:34;1.90;;;1.33;;
14326;SDS011;7247;53.330;-1.180;2024-03-29T00:28:00;3.57;;;1.57;;
14326;SDS011;7247;53.330;-1.180;2024-03-29T00:30:27;1.53;;;1.40;;
14326;SDS011;7247;53.330;-1.180;2024-03-29T00:32:52;2.30;;;1.30;;
14326;SDS011;7247;53.330;-1.180;2024-03-29T00:35:18;2.37;;;1.50;;
14326;SDS011;7247;53.330;-1.180;2024-03-29T00:37:43;2.00;;;1.40;;
14326;SDS011;7247;53.330;-1.180;2024-03-29T00:40:09;2.77;;;1.47;;
14326;SDS011;7247;53.330;-1.180;2024-03-29T00:42:35;3.00;;;1.40;;
14326;SDS011;7247;53.330;-1.180;2024-03-29T00:45:01;5.40;;;1.40;;
14326;SDS011;7247;53.330;-1.180;2024-03-29T00:47:27;1.70;;;1.40;;
14326;SDS011;7247;53.330;-1.180;2024-03-29T00:49:53;2.67;;;1.47;;
14326;SDS011;7247;53.330;-1.180;2024-03-29T00:52:18;1.80;;;1.30;;
14326;SDS011;7247;53.330;-1.180;2024-03-29T00:54:44;2.33;;;1.50;;
14326;SDS011;7247;53.330;-1.180;2024-03-29T00:57:09;2.03;;;1.40;;
14326;SDS011;7247;53.330;-1.180;2024-03-29T00:59:35;3.57;;;1.50;;
14326;SDS011;7247;53.330;-1.180;2024-03-29T01:02:00;4.13;;;1.20;;
14326;SDS011;7247;53.330;-1.180;2024-03-29T01:04:27;3.23;;;1.50;;
14326;SDS011;7247;53.330;-1.180;2024-03-29T01:06:53;2.70;;;1.50;;
14326;SDS011;7247;53.330;-1.180;2024-03-29T01:09:18;5.07;;;1.63;;
14326;SDS011;7247;53.330;-1.180;2024-03-29T01:11:43;3.17;;;1.80;;
14326;SDS011;7247;53.330;-1.180;2024-03-29T01:14:09;3.10;;;1.40;;
14326;SDS011;7247;53.330;-1.180;2024-03-29T01:16:34;3.43;;;1.63;;
14326;SDS011;7247;53.330;-1.180;2024-03-29T01:19:00;5.17;;;1.80;;
14326;SDS011;7247;53.330;-1.180;2024-03-29T01:21:27;4.30;;;1.60;;
14326;SDS011;7247;53.330;-1.180;2024-03-29T01:23:52;4.33;;;1.50;;
14326;SDS011;7247;53.330;-1.180;2024-03-29T01:26:18;2.93;;;1.30;;
14326;SDS011;7247;53.330;-1.180;2024-03-29T01:28:43;2.63;;;1.43;;
14326;SDS011;7247;53.330;-1.180;2024-03-29T01:31:09;5.87;;;1.73;;
14326;SDS011;7247;53.330;-1.180;2024-03-29T01:33:34;5.93;;;1.53;;
14326;SDS011;7247;53.330;-1.180;2024-03-29T01:36:00;5.37;;;1.50;;
14326;SDS011;7247;53.330;-1.180;2024-03-29T01:38:27;6.40;;;1.97;;
14326;SDS011;7247;53.330;-1.180;2024-03-29T01:40:52;5.27;;;1.67;;
14326;SDS011;7247;53.330;-1.180;2024-03-29T01:43:18;3.83;;;1.20;;
14326;SDS011;7247;53.330;-1.180;2024-03-29T01:45:44;4.03;;;1.40;;
14326;SDS011;7247;53.330;-1.180;2024-03-29T01:48:13;5.20;;;1.37;;
14326;SDS011;7247;53.330;-1.180;2024-03-29T01:50:40;7.77;;;1.60;;
14326;SDS011;7247;53.330;-1.180;2024-03-29T01:53:07;6.37;;;1.53;;
14326;SDS011;7247;53.330;-1.180;2024-03-29T01:55:36;3.60;;;1.70;;
14326;SDS011;7247;53.330;-1.180;2024-03-29T01:58:02;3.57;;;1.70;;
14326;SDS011;7247;53.330;-1.180;2024-03-29T02:00:29;3.13;;;1.30;;
14326;SDS011;7247;53.330;-1.180;2024-03-29T02:02:56;2.13;;;1.40;;
14326;SDS011;7247;53.330;-1.180;2024-03-29T02:05:23;4.70;;;1.73;;
14326;SDS011;7247;53.330;-1.180;2024-03-29T02:07:50;7.07;;;1.83;;
14326;SDS011;7247;53.330;-1.180;2024-03-29T02:10:17;7.67;;;2.20;;
14326;SDS011;7247;53.330;-1.180;2024-03-29T02:12:45;5.20;;;2.10;;
14326;SDS011;7247;53.330;-1.180;2024-03-29T02:15:14;5.87;;;1.73;;
14326;SDS011;7247;53.330;-1.180;2024-03-29T02:17:40;3.97;;;1.80;;
14326;SDS011;7247;53.330;-1.180;2024-03-29T02:20:07;7.63;;;1.90;;
14326;SDS011;7247;53.330;-1.180;2024-03-29T02:22:34;4.33;;;1.70;;
14326;SDS011;7247;53.330;-1.180;2024-03-29T02:25:04;5.57;;;1.90;;
14326;SDS011;7247;53.330;-1.180;2024-03-29T02:27:32;7.97;;;2.13;;
14326;SDS011;7247;53.330;-1.180;2024-03-29T02:29:58;5.73;;;2.00;;
14326;SDS011;7247;53.330;-1.180;2024-03-29T02:32:24;5.27;;;2.10;;
14326;SDS011;7247;53.330;-1.180;2024-03-29T02:34:53;5.80;;;2.03;;
14326;SDS011;7247;53.330;-1.180;2024-03-29T02:37:18;4.67;;;1.80;;
14326;SDS011;7247;53.330;-1.180;2024-03-29T02:39:44;5.40;;;1.90;;
14326;SDS011;7247;53.330;-1.180;2024-03-29T02:42:12;7.37;;;1.83;;
14326;SDS011;7247;53.330;-1.180;2024-03-29T02:44:39;4.63;;;1.80;;
14326;SDS011;7247;53.330;-1.180;2024-03-29T02:47:04;5.37;;;1.93;;
14326;SDS011;7247;53.330;-1.180;2024-03-29T02:49:31;4.20;;;1.60;;
14326;SDS011;7247;53.330;-1.180;2024-03-29T02:51:56;4.73;;;1.90;;
14326;SDS011;7247;53.330;-1.180;2024-03-29T02:54:22;5.00;;;1.70;;
14326;SDS011;7247;53.330;-1.180;2024-03-29T02:56:48;3.77;;;1.90;;
14326;SDS011;7247;53.330;-1.180;2024-03-29T02:59:16;7.07;;;2.07;;
14326;SDS011;7247;53.330;-1.180;2024-03-29T03:01:41;5.23;;;1.80;;
14326;SDS011;7247;53.330;-1.180;2024-03-29T03:04:07;6.90;;;2.10;;
14326;SDS011;7247;53.330;-1.180;2024-03-29T03:06:33;6.53;;;1.70;;
14326;SDS011;7247;53.330;-1.180;2024-03-29T03:08:59;4.13;;;1.70;;
14326;SDS011;7247;53.330;-1.180;2024-03-29T03:11:43;7.83;;;2.07;;
14326;SDS011;7247;53.330;-1.180;2024-03-29T03:14:10;6.40;;;1.90;;
14326;SDS011;7247;53.330;-1.180;2024-03-29T03:16:37;4.70;;;2.13;;
14326;SDS011;7247;53.330;-1.180;2024-03-29T03:19:04;5.10;;;1.80;;
14326;SDS011;7247;53.330;-1.180;2024-03-29T03:21:29;5.63;;;1.97;;
14326;SDS011;7247;53.330;-1.180;2024-03-29T03:23:56;5.07;;;1.93;;
14326;SDS011;7247;53.330;-1.180;2024-03-29T03:26:21;4.53;;;1.90;;
14326;SDS011;7247;53.330;-1.180;2024-03-29T03:28:48;4.33;;;1.97;;
14326;SDS011;7247;53.330;-1.180;2024-03-29T03:31:13;4.10;;;2.30;;
14326;SDS011;7247;53.330;-1.180;2024-03-29T03:33:41;8.43;;;2.60;;
14326;SDS011;7247;53.330;-1.180;2024-03-29T03:36:06;6.03;;;2.30;;
14326;SDS011;7247;53.330;-1.180;2024-03-29T03:38:33;6.17;;;2.00;;
14326;SDS011;7247;53.330;-1.180;2024-03-29T03:41:01;5.77;;;2.00;;
14326;SDS011;7247;53.330;-1.180;2024-03-29T03:43:27;5.30;;;2.03;;
14326;SDS011;7247;53.330;-1.180;2024-03-29T03:45:54;6.37;;;2.30;;
14326;SDS011;7247;53.330;-1.180;2024-03-29T03:48:19;5.20;;;2.07;;
14326;SDS011;7247;53.330;-1.180;2024-03-29T03:50:47;5.77;;;2.23;;
14326;SDS011;7247;53.330;-1.180;2024-03-29T03:53:12;7.77;;;2.30;;
14326;SDS011;7247;53.330;-1.180;2024-03-29T03:55:39;4.77;;;2.20;;
14326;SDS011;7247;53.330;-1.180;2024-03-29T03:58:04;7.37;;;2.63;;
14326;SDS011;7247;53.330;-1.180;2024-03-29T04:00:31;6.23;;;2.23;;
14326;SDS011;7247;53.330;-1.180;2024-03-29T04:02:56;3.60;;;2.00;;
14326;SDS011;7247;53.330;-1.180;2024-03-29T04:05:23;5.97;;;2.07;;
14326;SDS011;7247;53.330;-1.180;2024-03-29T04:07:51;5.63;;;2.20;;
14326;SDS011;7247;53.330;-1.180;2024-03-29T04:10:17;5.00;;;2.40;;
14326;SDS011;7247;53.330;-1.180;2024-03-29T04:12:43;7.90;;;2.40;;
14326;SDS011;7247;53.330;-1.180;2024-03-29T04:15:09;5.17;;;2.33;;
14326;SDS011;7247;53.330;-1.180;2024-03-29T04:17:36;5.40;;;2.10;;
14326;SDS011;7247;53.330;-1.180;2024-03-29T04:20:02;9.70;;;2.53;;
14326;SDS011;7247;53.330;-1.180;2024-03-29T04:22:28;6.30;;;2.40;;
14326;SDS011;7247;53.330;-1.180;2024-03-29T04:24:56;6.23;;;2.63;;
14326;SDS011;7247;53.330;-1.180;2024-03-29T04:27:21;5.57;;;2.30;;
14326;SDS011;7247;53.330;-1.180;2024-03-29T04:29:50;5.90;;;2.23;;
14326;SDS011;7247;53.330;-1.180;2024-03-29T04:32:16;5.77;;;2.60;;
14326;SDS011;7247;53.330;-1.180;2024-03-29T04:34:42;3.20;;;1.87;;
14326;SDS011;7247;53.330;-1.180;2024-03-29T04:37:08;6.57;;;2.47;;
14326;SDS011;7247;53.330;-1.180;2024-03-29T04:39:35;6.20;;;2.83;;
14326;SDS011;7247;53.330;-1.180;2024-03-29T04:42:03;6.73;;;2.83;;
14326;SDS011;7247;53.330;-1.180;2024-03-29T04:44:29;6.30;;;2.93;;
14326;SDS011;7247;53.330;-1.180;2024-03-29T04:46:56;4.37;;;2.57;;
14326;SDS011;7247;53.330;-1.180;2024-03-29T04:49:22;7.93;;;2.67;;
14326;SDS011;7247;53.330;-1.180;2024-03-29T04:51:55;6.90;;;2.70;;
14326;SDS011;7247;53.330;-1.180;2024-03-29T04:54:21;8.27;;;3.27;;
14326;SDS011;7247;53.330;-1.180;2024-03-29T04:56:48;6.93;;;2.80;;
14326;SDS011;7247;53.330;-1.180;2024-03-29T04:59:16;6.27;;;2.83;;
14326;SDS011;7247;53.330;-1.180;2024-03-29T05:01:43;7.57;;;2.97;;
14326;SDS011;7247;53.330;-1.180;2024-03-29T05:04:10;12.47;;;2.90;;
14326;SDS011;7247;53.330;-1.180;2024-03-29T05:06:37;8.37;;;3.30;;
14326;SDS011;7247;53.330;-1.180;2024-03-29T05:09:03;6.77;;;2.97;;
14326;SDS011;7247;53.330;-1.180;2024-03-29T05:11:29;8.40;;;4.07;;
14326;SDS011;7247;53.330;-1.180;2024-03-29T05:13:56;6.93;;;3.77;;
14326;SDS011;7247;53.330;-1.180;2024-03-29T05:16:27;12.43;;;4.37;;
14326;SDS011;7247;53.330;-1.180;2024-03-29T05:18:53;11.23;;;4.70;;
14326;SDS011;7247;53.330;-1.180;2024-03-29T05:21:19;13.37;;;6.50;;
14326;SDS011;7247;53.330;-1.180;2024-03-29T05:23:46;13.77;;;6.13;;
14326;SDS011;7247;53.330;-1.180;2024-03-29T05:26:12;13.10;;;6.00;;
14326;SDS011;7247;53.330;-1.180;2024-03-29T05:28:39;14.00;;;6.63;;
14326;SDS011;7247;53.330;-1.180;2024-03-29T05:31:10;12.50;;;6.67;;
14326;SDS011;7247;53.330;-1.180;2024-03-29T05:33:38;10.73;;;6.43;;
14326;SDS011;7247;53.330;-1.180;2024-03-29T05:36:05;15.53;;;7.00;;
14326;SDS011;7247;53.330;-1.180;2024-03-29T05:38:33;18.13;;;8.00;;
14326;SDS011;7247;53.330;-1.180;2024-03-29T05:41:00;16.67;;;7.40;;
14326;SDS011;7247;53.330;-1.180;2024-03-29T05:43:26;18.23;;;6.83;;
14326;SDS011;7247;53.330;-1.180;2024-03-29T05:45:52;12.47;;;6.40;;
14326;SDS011;7247;53.330;-1.180;2024-03-29T05:48:19;13.97;;;6.00;;
14326;SDS011;7247;53.330;-1.180;2024-03-29T05:50:47;13.37;;;5.73;;
14326;SDS011;7247;53.330;-1.180;2024-03-29T05:53:13;12.53;;;5.43;;
14326;SDS011;7247;53.330;-1.180;2024-03-29T05:55:40;11.93;;;5.30;;
14326;SDS011;7247;53.330;-1.180;2024-03-29T05:58:06;10.23;;;5.00;;
14326;SDS011;7247;53.330;-1.180;2024-03-29T06:00:32;12.37;;;4.87;;
14326;SDS011;7247;53.330;-1.180;2024-03-29T06:02:59;13.50;;;5.33;;
14326;SDS011;7247;53.330;-1.180;2024-03-29T06:05:27;11.37;;;5.07;;
14326;SDS011;7247;53.330;-1.180;2024-03-29T06:07:55;10.90;;;4.87;;
14326;SDS011;7247;53.330;-1.180;2024-03-29T06:10:22;8.83;;;5.20;;
14326;SDS011;7247;53.330;-1.180;2024-03-29T06:12:47;7.30;;;4.47;;
14326;SDS011;7247;53.330;-1.180;2024-03-29T06:15:14;11.07;;;5.70;;
14326;SDS011;7247;53.330;-1.180;2024-03-29T06:17:58;12.77;;;5.00;;
14326;SDS011;7247;53.330;-1.180;2024-03-29T06:20:24;13.17;;;5.63;;
14326;SDS011;7247;53.330;-1.180;2024-03-29T06:22:51;11.30;;;4.63;;
14326;SDS011;7247;53.330;-1.180;2024-03-29T06:25:19;12.90;;;6.17;;
14326;SDS011;7247;53.330;-1.180;2024-03-29T06:27:45;10.67;;;5.10;;
14326;SDS011;7247;53.330;-1.180;2024-03-29T06:30:13;13.40;;;4.97;;
14326;SDS011;7247;53.330;-1.180;2024-03-29T06:32:39;13.80;;;4.77;;
14326;SDS011;7247;53.330;-1.180;2024-03-29T06:35:06;14.70;;;5.03;;
14326;SDS011;7247;53.330;-1.180;2024-03-29T06:37:32;15.37;;;4.97;;
14326;SDS011;7247;53.330;-1.180;2024-03-29T06:39:59;16.77;;;5.00;;
14326;SDS011;7247;53.330;-1.180;2024-03-29T06:42:27;13.73;;;4.67;;
14326;SDS011;7247;53.330;-1.180;2024-03-29T06:44:53;9.03;;;4.47;;
14326;SDS011;7247;53.330;-1.180;2024-03-29T06:47:20;9.87;;;4.63;;
14326;SDS011;7247;53.330;-1.180;2024-03-29T06:49:47;7.47;;;4.40;;
14326;SDS011;7247;53.330;-1.180;2024-03-29T06:52:13;13.20;;;4.40;;
14326;SDS011;7247;53.330;-1.180;2024-03-29T06:54:40;8.73;;;4.00;;
14326;SDS011;7247;53.330;-1.180;2024-03-29T06:57:06;10.47;;;4.40;;
14326;SDS011;7247;53.330;-1.180;2024-03-29T06:59:36;9.60;;;4.60;;
14326;SDS011;7247;53.330;-1.180;2024-03-29T07:02:04;14.13;;;4.73;;
14326;SDS011;7247;53.330;-1.180;2024-03-29T07:04:31;7.27;;;4.03;;
14326;SDS011;7247;53.330;-1.180;2024-03-29T07:06:58;7.60;;;3.97;;
14326;SDS011;7247;53.330;-1.180;2024-03-29T07:09:25;9.53;;;3.60;;
14326;SDS011;7247;53.330;-1.180;2024-03-29T07:11:51;8.20;;;4.07;;
14326;SDS011;7247;53.330;-1.180;2024-03-29T07:14:20;11.50;;;4.20;;
14326;SDS011;7247;53.330;-1.180;2024-03-29T07:16:49;9.30;;;3.90;;
14326;SDS011;7247;53.330;-1.180;2024-03-29T07:19:16;12.23;;;3.83;;
14326;SDS011;7247;53.330;-1.180;2024-03-29T07:21:44;9.53;;;4.13;;
14326;SDS011;7247;53.330;-1.180;2024-03-29T07:24:10;6.43;;;3.77;;
14326;SDS011;7247;53.330;-1.180;2024-03-29T07:26:37;8.13;;;3.67;;
14326;SDS011;7247;53.330;-1.180;2024-03-29T07:29:03;6.27;;;2.87;;
14326;SDS011;7247;53.330;-1.180;2024-03-29T07:31:31;9.27;;;2.93;;
14326;SDS011;7247;53.330;-1.180;2024-03-29T07:33:59;9.17;;;3.00;;
14326;SDS011;7247;53.330;-1.180;2024-03-29T07:36:25;7.93;;;2.83;;
14326;SDS011;7247;53.330;-1.180;2024-03-29T07:38:56;8.00;;;3.00;;
14326;SDS011;7247;53.330;-1.180;2024-03-29T07:41:22;7.47;;;2.57;;
14326;SDS011;7247;53.330;-1.180;2024-03-29T07:43:52;5.80;;;2.60;;
14326;SDS011;7247;53.330;-1.180;2024-03-29T07:46:19;7.73;;;2.70;;
14326;SDS011;7247;53.330;-1.180;2024-03-29T07:48:47;6.00;;;2.47;;
14326;SDS011;7247;53.330;-1.180;2024-03-29T07:51:14;6.50;;;2.77;;
14326;SDS011;7247;53.330;-1.180;2024-03-29T07:53:41;5.00;;;2.57;;
14326;SDS011;7247;53.330;-1.180;2024-03-29T07:56:07;5.53;;;2.53;;
14326;SDS011;7247;53.330;-1.180;2024-03-29T07:58:34;5.73;;;2.37;;
14326;SDS011;7247;53.330;-1.180;2024-03-29T08:01:00;4.83;;;2.40;;
14326;SDS011;7247;53.330;-1.180;2024-03-29T08:03:27;4.57;;;2.20;;
14326;SDS011;7247;53.330;-1.180;2024-03-29T08:05:56;5.97;;;2.53;;
14326;SDS011;7247;53.330;-1.180;2024-03-29T08:08:24;4.40;;;2.30;;
14326;SDS011;7247;53.330;-1.180;2024-03-29T08:10:52;5.33;;;2.30;;
14326;SDS011;7247;53.330;-1.180;2024-03-29T08:13:19;5.37;;;2.50;;
14326;SDS011;7247;53.330;-1.180;2024-03-29T08:15:46;7.33;;;2.40;;
14326;SDS011;7247;53.330;-1.180;2024-03-29T08:18:13;6.10;;;2.10;;
14326;SDS011;7247;53.330;-1.180;2024-03-29T08:20:39;5.40;;;2.10;;
14326;SDS011;7247;53.330;-1.180;2024-03-29T08:23:06;7.00;;;1.83;;
14326;SDS011;7247;53.330;-1.180;2024-03-29T08:25:34;5.93;;;2.00;;
14326;SDS011;7247;53.330;-1.180;2024-03-29T08:28:00;7.27;;;2.17;;
14326;SDS011;7247;53.330;-1.180;2024-03-29T08:30:27;5.67;;;2.20;;
14326;SDS011;7247;53.330;-1.180;2024-03-29T08:33:00;6.27;;;2.10;;
14326;SDS011;7247;53.330;-1.180;2024-03-29T08:35:27;4.37;;;2.03;;
14326;SDS011;7247;53.330;-1.180;2024-03-29T08:37:54;6.10;;;2.17;;
14326;SDS011;7247;53.330;-1.180;2024-03-29T08:40:20;5.93;;;2.00;;
14326;SDS011;7247;53.330;-1.180;2024-03-29T08:42:48;3.77;;;1.50;;
14326;SDS011;7247;53.330;-1.180;2024-03-29T08:45:14;4.83;;;1.77;;
14326;SDS011;7247;53.330;-1.180;2024-03-29T08:47:41;5.93;;;1.93;;
14326;SDS011;7247;53.330;-1.180;2024-03-29T08:50:06;3.97;;;1.70;;
14326;SDS011;7247;53.330;-1.180;2024-03-29T08:52:33;4.30;;;1.60;;
14326;SDS011;7247;53.330;-1.180;2024-03-29T08:55:00;5.90;;;1.90;;
14326;SDS011;7247;53.330;-1.180;2024-03-29T08:57:27;5.53;;;1.80;;
14326;SDS011;7247;53.330;-1.180;2024-03-29T08:59:54;5.23;;;1.67;;
14326;SDS011;7247;53.330;-1.180;2024-03-29T09:02:21;5.27;;;1.70;;
14326;SDS011;7247;53.330;-1.180;2024-03-29T09:04:47;6.37;;;1.80;;
14326;SDS011;7247;53.330;-1.180;2024-03-29T09:07:14;5.77;;;1.80;;
14326;SDS011;7247;53.330;-1.180;2024-03-29T09:09:40;7.60;;;2.00;;
14326;SDS011;7247;53.330;-1.180;2024-03-29T09:12:07;4.77;;;1.57;;
14326;SDS011;7247;53.330;-1.180;2024-03-29T09:14:33;5.63;;;1.60;;
14326;SDS011;7247;53.330;-1.180;2024-03-29T09:17:01;4.37;;;1.73;;
14326;SDS011;7247;53.330;-1.180;2024-03-29T09:19:28;7.63;;;1.87;;
14326;SDS011;7247;53.330;-1.180;2024-03-29T09:21:55;8.13;;;1.97;;
14326;SDS011;7247;53.330;-1.180;2024-03-29T09:24:21;6.77;;;1.80;;
14326;SDS011;7247;53.330;-1.180;2024-03-29T09:26:50;4.53;;;1.50;;
14326;SDS011;7247;53.330;-1.180;2024-03-29T09:29:17;6.13;;;1.63;;
14326;SDS011;7247;53.330;-1.180;2024-03-29T09:31:45;7.13;;;1.90;;
14326;SDS011;7247;53.330;-1.180;2024-03-29T09:34:13;5.53;;;1.60;;
14326;SDS011;7247;53.330;-1.180;2024-03-29T09:36:39;9.00;;;2.10;;
14326;SDS011;7247;53.330;-1.180;2024-03-29T09:39:06;5.70;;;2.23;;
14326;SDS011;7247;53.330;-1.180;2024-03-29T09:41:33;6.67;;;2.00;;
14326;SDS011;7247;53.330;-1.180;2024-03-29T09:44:02;8.37;;;1.87;;
14326;SDS011;7247;53.330;-1.180;2024-03-29T09:46:29;4.03;;;1.60;;
14326;SDS011;7247;53.330;-1.180;2024-03-29T09:48:57;7.10;;;2.00;;
14326;SDS011;7247;53.330;-1.180;2024-03-29T09:51:26;7.33;;;2.00;;
14326;SDS011;7247;53.330;-1.180;2024-03-29T09:53:53;4.33;;;1.80;;
14326;SDS011;7247;53.330;-1.180;2024-03-29T09:56:22;6.20;;;1.83;;
14326;SDS011;7247;53.330;-1.180;2024-03-29T09:58:48;6.90;;;1.67;;
14326;SDS011;7247;53.330;-1.180;2024-03-29T10:01:15;6.03;;;2.00;;
14326;SDS011;7247;53.330;-1.180;2024-03-29T10:03:42;6.80;;;2.13;;
14326;SDS011;7247;53.330;-1.180;2024-03-29T10:06:10;6.60;;;2.10;;
14326;SDS011;7247;53.330;-1.180;2024-03-29T10:08:40;6.37;;;1.97;;
14326;SDS011;7247;53.330;-1.180;2024-03-29T10:11:07;5.87;;;1.90;;
14326;SDS011;7247;53.330;-1.180;2024-03-29T10:13:33;5.77;;;1.60;;
14326;SDS011;7247;53.330;-1.180;2024-03-29T10:16:00;5.43;;;1.90;;
14326;SDS011;7247;53.330;-1.180;2024-03-29T10:18:28;6.80;;;2.10;;
14326;SDS011;7247;53.330;-1.180;2024-03-29T10:20:59;6.63;;;1.97;;
14326;SDS011;7247;53.330;-1.180;2024-03-29T10:23:26;6.97;;;2.70;;
14326;SDS011;7247;53.330;-1.180;2024-03-29T10:25:54;7.93;;;2.10;;
14326;SDS011;7247;53.330;-1.180;2024-03-29T10:28:21;7.53;;;2.37;;
14326;SDS011;7247;53.330;-1.180;2024-03-29T10:30:47;4.00;;;2.00;;
14326;SDS011;7247;53.330;-1.180;2024-03-29T10:33:14;7.80;;;2.40;;
14326;SDS011;7247;53.330;-1.180;2024-03-29T10:35:41;7.07;;;2.10;;
14326;SDS011;7247;53.330;-1.180;2024-03-29T10:38:08;5.53;;;2.07;;
14326;SDS011;7247;53.330;-1.180;2024-03-29T10:40:35;4.97;;;2.00;;
14326;SDS011;7247;53.330;-1.180;2024-03-29T10:43:04;6.93;;;2.30;;
14326;SDS011;7247;53.330;-1.180;2024-03-29T10:45:34;7.10;;;2.10;;
14326;SDS011;7247;53.330;-1.180;2024-03-29T10:48:03;8.67;;;2.63;;
14326;SDS011;7247;53.330;-1.180;2024-03-29T10:50:34;5.13;;;2.20;;
14326;SDS011;7247;53.330;-1.180;2024-03-29T10:53:00;5.87;;;2.20;;
14326;SDS011;7247;53.330;-1.180;2024-03-29T10:55:28;9.77;;;2.83;;
14326;SDS011;7247;53.330;-1.180;2024-03-29T10:57:55;6.97;;;2.43;;
14326;SDS011;7247;53.330;-1.180;2024-03-29T11:00:25;8.30;;;2.77;;
14326;SDS011;7247;53.330;-1.180;2024-03-29T11:02:54;7.80;;;2.67;;
14326;SDS011;7247;53.330;-1.180;2024-03-29T11:05:23;7.60;;;2.60;;
14326;SDS011;7247;53.330;-1.180;2024-03-29T11:07:51;7.20;;;2.50;;
14326;SDS011;7247;53.330;-1.180;2024-03-29T11:10:20;6.33;;;2.60;;
14326;SDS011;7247;53.330;-1.180;2024-03-29T11:12:58;5.47;;;2.20;;
14326;SDS011;7247;53.330;-1.180;2024-03-29T11:15:29;3.70;;;1.60;;
14326;SDS011;7247;53.330;-1.180;2024-03-29T11:17:57;3.50;;;1.50;;
14326;SDS011;7247;53.330;-1.180;2024-03-29T11:20:26;3.73;;;1.47;;
14326;SDS011;7247;53.330;-1.180;2024-03-29T11:23:03;3.33;;;1.20;;
14326;SDS011;7247;53.330;-1.180;2024-03-29T11:25:40;3.70;;;1.50;;
14326;SDS011;7247;53.330;-1.180;2024-03-29T11:28:07;3.33;;;1.37;;
14326;SDS011;7247;53.330;-1.180;2024-03-29T11:30:40;2.77;;;1.50;;
14326;SDS011;7247;53.330;-1.180;2024-03-29T11:33:07;2.73;;;1.20;;
14326;SDS011;7247;53.330;-1.180;2024-03-29T11:35:38;3.93;;;1.10;;
14326;SDS011;7247;53.330;-1.180;2024-03-29T11:38:04;2.20;;;1.17;;
14326;SDS011;7247;53.330;-1.180;2024-03-29T11:40:31;3.50;;;1.20;;
14326;SDS011;7247;53.330;-1.180;2024-03-29T11:42:57;2.37;;;1.17;;
14326;SDS011;7247;53.330;-1.180;2024-03-29T11:45:24;3.23;;;1.37;;
14326;SDS011;7247;53.330;-1.180;2024-03-29T11:47:55;1.93;;;1.07;;
14326;SDS011;7247;53.330;-1.180;2024-03-29T11:50:26;2.90;;;1.20;;
14326;SDS011;7247;53.330;-1.180;2024-03-29T11:52:52;1.80;;;1.10;;
14326;SDS011;7247;53.330;-1.180;2024-03-29T11:55:20;2.60;;;1.30;;
14326;SDS011;7247;53.330;-1.180;2024-03-29T11:57:47;3.03;;;1.10;;
14326;SDS011;7247;53.330;-1.180;2024-03-29T12:00:14;3.63;;;1.20;;
14326;SDS011;7247;53.330;-1.180;2024-03-29T12:02:41;3.07;;;1.20;;
14326;SDS011;7247;53.330;-1.180;2024-03-29T12:05:09;6.80;;;1.40;;
14326;SDS011;7247;53.330;-1.180;2024-03-29T12:07:35;4.70;;;1.50;;
14326;SDS011;7247;53.330;-1.180;2024-03-29T12:10:02;4.80;;;1.30;;
14326;SDS011;7247;53.330;-1.180;2024-03-29T12:12:29;3.70;;;1.23;;
14326;SDS011;7247;53.330;-1.180;2024-03-29T12:14:59;2.70;;;1.30;;
14326;SDS011;7247;53.330;-1.180;2024-03-29T12:17:26;3.07;;;1.43;;
14326;SDS011;7247;53.330;-1.180;2024-03-29T12:19:57;4.17;;;1.37;;
14326;SDS011;7247;53.330;-1.180;2024-03-29T12:22:27;2.97;;;1.37;;
14326;SDS011;7247;53.330;-1.180;2024-03-29T12:24:54;2.10;;;1.20;;
14326;SDS011;7247;53.330;-1.180;2024-03-29T12:27:20;2.23;;;1.10;;
14326;SDS011;7247;53.330;-1.180;2024-03-29T12:29:49;2.37;;;1.20;;
14326;SDS011;7247;53.330;-1.180;2024-03-29T12:32:18;3.90;;;1.40;;
14326;SDS011;7247;53.330;-1.180;2024-03-29T12:34:44;3.47;;;1.30;;
14326;SDS011;7247;53.330;-1.180;2024-03-29T12:37:11;4.20;;;1.23;;
14326;SDS011;7247;53.330;-1.180;2024-03-29T12:39:42;4.83;;;1.50;;
14326;SDS011;7247;53.330;-1.180;2024-03-29T12:42:08;3.73;;;1.50;;
14326;SDS011;7247;53.330;-1.180;2024-03-29T12:44:35;4.23;;;1.43;;
14326;SDS011;7247;53.330;-1.180;2024-03-29T12:47:01;3.23;;;1.20;;
14326;SDS011;7247;53.330;-1.180;2024-03-29T12:49:28;3.10;;;1.40;;
14326;SDS011;7247;53.330;-1.180;2024-03-29T12:51:55;4.90;;;1.20;;
14326;SDS011;7247;53.330;-1.180;2024-03-29T12:54:22;3.73;;;1.20;;
14326;SDS011;7247;53.330;-1.180;2024-03-29T12:56:50;3.30;;;1.50;;
14326;SDS011;7247;53.330;-1.180;2024-03-29T12:59:16;2.73;;;1.20;;
14326;SDS011;7247;53.330;-1.180;2024-03-29T13:01:43;3.73;;;1.47;;
14326;SDS011;7247;53.330;-1.180;2024-03-29T13:04:10;3.07;;;1.33;;
14326;SDS011;7247;53.330;-1.180;2024-03-29T13:06:37;3.90;;;1.20;;
14326;SDS011;7247;53.330;-1.180;2024-03-29T13:09:04;3.13;;;1.20;;
14326;SDS011;7247;53.330;-1.180;2024-03-29T13:11:30;4.00;;;1.40;;
14326;SDS011;7247;53.330;-1.180;2024-03-29T13:13:58;5.67;;;1.40;;
14326;SDS011;7247;53.330;-1.180;2024-03-29T13:16:25;5.40;;;1.47;;
14326;SDS011;7247;53.330;-1.180;2024-03-29T13:18:52;3.23;;;1.30;;
14326;SDS011;7247;53.330;-1.180;2024-03-29T13:21:18;2.03;;;1.20;;
14326;SDS011;7247;53.330;-1.180;2024-03-29T13:23:44;3.13;;;1.33;;
14326;SDS011;7247;53.330;-1.180;2024-03-29T13:26:11;4.10;;;1.43;;
14326;SDS011;7247;53.330;-1.180;2024-03-29T13:28:37;3.17;;;1.10;;
14326;SDS011;7247;53.330;-1.180;2024-03-29T13:31:05;3.07;;;1.30;;
14326;SDS011;7247;53.330;-1.180;2024-03-29T13:33:32;3.00;;;1.10;;
14326;SDS011;7247;53.330;-1.180;2024-03-29T13:35:58;4.73;;;1.20;;
14326;SDS011;7247;53.330;-1.180;2024-03-29T13:38:24;3.73;;;1.30;;
14326;SDS011;7247;53.330;-1.180;2024-03-29T13:40:51;2.77;;;1.10;;
14326;SDS011;7247;53.330;-1.180;2024-03-29T13:43:18;3.33;;;1.20;;
14326;SDS011;7247;53.330;-1.180;2024-03-29T13:45:47;2.93;;;1.27;;
14326;SDS011;7247;53.330;-1.180;2024-03-29T13:48:15;3.03;;;1.13;;
14326;SDS011;7247;53.330;-1.180;2024-03-29T13:50:41;3.83;;;1.30;;
14326;SDS011;7247;53.330;-1.180;2024-03-29T13:53:08;4.30;;;1.43;;
14326;SDS011;7247;53.330;-1.180;2024-03-29T13:55:34;2.40;;;1.40;;
14326;SDS011;7247;53.330;-1.180;2024-03-29T13:58:01;3.37;;;1.23;;
14326;SDS011;7247;53.330;-1.180;2024-03-29T14:00:28;3.80;;;1.50;;
14326;SDS011;7247;53.330;-1.180;2024-03-29T14:02:54;4.03;;;1.37;;
14326;SDS011;7247;53.330;-1.180;2024-03-29T14:05:22;4.33;;;1.57;;
14326;SDS011;7247;53.330;-1.180;2024-03-29T14:07:49;2.73;;;1.00;;
14326;SDS011;7247;53.330;-1.180;2024-03-29T14:10:15;4.40;;;1.60;;
14326;SDS011;7247;53.330;-1.180;2024-03-29T14:12:43;3.40;;;1.43;;
14326;SDS011;7247;53.330;-1.180;2024-03-29T14:15:10;3.43;;;1.50;;
14326;SDS011;7247;53.330;-1.180;2024-03-29T14:17:37;4.40;;;1.50;;
14326;SDS011;7247;53.330;-1.180;2024-03-29T14:20:04;5.30;;;1.40;;
14326;SDS011;7247;53.330;-1.180;2024-03-29T14:22:32;5.90;;;1.50;;
14326;SDS011;7247;53.330;-1.180;2024-03-29T14:25:00;3.53;;;1.30;;
14326;SDS011;7247;53.330;-1.180;2024-03-29T14:27:28;3.27;;;1.40;;
14326;SDS011;7247;53.330;-1.180;2024-03-29T14:29:56;5.80;;;1.60;;
14326;SDS011;7247;53.330;-1.180;2024-03-29T14:32:22;3.17;;;1.20;;
14326;SDS011;7247;53.330;-1.180;2024-03-29T14:34:48;5.97;;;1.40;;
14326;SDS011;7247;53.330;-1.180;2024-03-29T14:37:15;3.07;;;1.33;;
14326;SDS011;7247;53.330;-1.180;2024-03-29T14:39:43;3.10;;;1.30;;
14326;SDS011;7247;53.330;-1.180;2024-03-29T14:42:10;3.90;;;1.50;;
14326;SDS011;7247;53.330;-1.180;2024-03-29T14:44:39;4.23;;;1.60;;